Smitwijs London — PCBI — position and weather

sailwx.info

Track history (hours):
 
Tides and Currents Weather Stations Pressure Air Temp Water Temp Dewpoint Dewpoint Depression Visibility Wind Speed Wind Dir Waves Ship Positions

Smitwijs London

Last reported at 2018-Apr-22 14:31 UTC. Time now 2018-Apr-22 14:42 UTC.
Position N 51°58' E 004°08'.

Length 75 m; beam 16 m.

Type: Tug. MMSI: 244098956.

Date/timePositionNaut miles runAvg speedWind from/ knotsBaromVisibWave heightAir tempDewpointWater temp
2018-Apr-22 14:31N 51°58' E 004°08'0 0.0
2018-Apr-22 14:01N 51°58' E 004°08'0 0.0
2018-Apr-22 13:30N 51°58' E 004°08'0 0.0
2018-Apr-22 13:01N 51°58' E 004°08'1 2.0
2018-Apr-22 12:30N 51°57' E 004°10'2 4.0
2018-Apr-22 12:01N 51°56' E 004°12'0 0.4
2018-Apr-22 11:31N 51°56' E 004°12'3 5.2
2018-Apr-22 11:00N 51°57' E 004°09'0 0.8
2018-Apr-22 10:31N 51°58' E 004°08'0 0.0
2018-Apr-22 10:01N 51°58' E 004°08'0 0.0
2018-Apr-22 09:31N 51°58' E 004°08'0 0.0
2018-Apr-22 09:00N 51°58' E 004°08'0 0.0
2018-Apr-22 08:31N 51°58' E 004°08'0 0.0
2018-Apr-22 08:00N 51°58' E 004°08'0 0.0
2018-Apr-22 07:30N 51°58' E 004°08'0 0.0
2018-Apr-22 07:01N 51°58' E 004°08'0 0.0
2018-Apr-22 06:31N 51°58' E 004°08'0 0.0
2018-Apr-22 06:00N 51°58' E 004°08'0 0.0
2018-Apr-22 05:30N 51°58' E 004°08'0 0.0
2018-Apr-22 05:00N 51°58' E 004°08'0 0.0
2018-Apr-22 04:31N 51°58' E 004°08'0 0.0
2018-Apr-22 04:00N 51°58' E 004°08'0 0.0
2018-Apr-22 03:31N 51°58' E 004°08'0 0.0
2018-Apr-22 03:01N 51°58' E 004°08'0 0.0
2018-Apr-22 02:31N 51°58' E 004°08'0 0.0
2018-Apr-22 02:00N 51°58' E 004°08'0 0.0
2018-Apr-22 01:31N 51°58' E 004°08'0 0.0
2018-Apr-22 01:01N 51°58' E 004°08'0 0.0
2018-Apr-22 00:30N 51°58' E 004°08'0 0.0
2018-Apr-22 00:01N 51°58' E 004°08'0 0.0
2018-Apr-21 23:31N 51°58' E 004°08'1 1.2
2018-Apr-21 23:01N 51°57' E 004°09'3 6.0
2018-Apr-21 22:30N 51°55' E 004°12'0 0.5
2018-Apr-21 22:01N 51°55' E 004°12'2 4.3
2018-Apr-21 21:31N 51°57' E 004°10'1 2.1
2018-Apr-21 21:01N 51°57' E 004°08'0 0.7
2018-Apr-21 20:31N 51°58' E 004°08'0 0.0
2018-Apr-21 20:01N 51°58' E 004°08'0 0.0
2018-Apr-21 19:31N 51°58' E 004°08'0 0.6
2018-Apr-21 19:01N 51°58' E 004°08'2 4.2
2018-Apr-21 18:30N 51°58' E 004°04'0 0.0
2018-Apr-21 18:01N 51°58' E 004°04'0 0.5
2018-Apr-21 17:31N 51°58' E 004°05'1 2.6
2018-Apr-21 17:01N 51°59' E 004°04'1 2.8
2018-Apr-21 16:31N 51°58' E 004°04'0 0.0
2018-Apr-21 16:01N 51°58' E 004°04'0 0.0
2018-Apr-21 15:31N 51°58' E 004°04'2 3.1
2018-Apr-21 15:01N 51°58' E 004°02'2 3.4
2018-Apr-21 14:30N 51°58' E 003°59'0 0.6
2018-Apr-21 14:00N 51°58' E 003°60'2 4.0
2018-Apr-21 13:31N 51°58' E 004°03'1 2.1
2018-Apr-21 13:01N 51°59' E 004°04'3 5.8
2018-Apr-21 12:31N 51°58' E 004°08'0 0.0
2018-Apr-21 12:01N 51°58' E 004°08'0 0.0
2018-Apr-21 11:31N 51°58' E 004°08'0 0.0
2018-Apr-21 11:01N 51°58' E 004°08'0 0.0
2018-Apr-21 10:31N 51°58' E 004°08'0 0.0
2018-Apr-21 10:01N 51°58' E 004°08'0 0.0
2018-Apr-21 09:31N 51°58' E 004°08'0 0.0
2018-Apr-21 09:01N 51°58' E 004°08'0 0.0
2018-Apr-21 08:31N 51°58' E 004°08'0 0.0
2018-Apr-21 08:01N 51°58' E 004°08'0 0.0
2018-Apr-21 07:31N 51°58' E 004°08'0 0.0
2018-Apr-21 07:01N 51°58' E 004°08'0 0.0
2018-Apr-21 06:31N 51°58' E 004°08'0 0.0
2018-Apr-21 06:01N 51°58' E 004°08'0 0.0
2018-Apr-21 05:30N 51°58' E 004°08'0 0.0
2018-Apr-21 05:01N 51°58' E 004°08'0 0.0
2018-Apr-21 04:31N 51°58' E 004°08'0 0.0
2018-Apr-21 04:00N 51°58' E 004°08'0 0.0
2018-Apr-21 03:31N 51°58' E 004°08'0 0.0
2018-Apr-21 03:01N 51°58' E 004°08'0 0.0
2018-Apr-21 02:30N 51°58' E 004°08'0 0.0
2018-Apr-21 02:01N 51°58' E 004°08'0 0.0
2018-Apr-21 01:31N 51°58' E 004°08'0 0.0
2018-Apr-21 01:00N 51°58' E 004°08'0 0.0
2018-Apr-21 00:31N 51°58' E 004°08'0 0.0
2018-Apr-21 00:01N 51°58' E 004°08'0 0.0
2018-Apr-20 23:30N 51°58' E 004°08'0 0.0
2018-Apr-20 23:00N 51°58' E 004°08'0 0.0
2018-Apr-20 22:31N 51°58' E 004°08'0 0.0
2018-Apr-20 22:01N 51°58' E 004°08'0 0.0
2018-Apr-20 21:30N 51°58' E 004°08'0 0.0
2018-Apr-20 21:00N 51°58' E 004°08'0 0.0
2018-Apr-20 20:31N 51°58' E 004°08'0 0.0
2018-Apr-20 20:00N 51°58' E 004°08'0 0.3
2018-Apr-20 19:31N 51°58' E 004°09'3 6.1
2018-Apr-20 19:01N 51°55' E 004°12'0 0.9
2018-Apr-20 18:31N 51°56' E 004°12'2 4.9
2018-Apr-20 18:01N 51°57' E 004°09'0 1.0
2018-Apr-20 17:31N 51°58' E 004°08'0 0.0
2018-Apr-20 17:01N 51°58' E 004°08'0 0.0
2018-Apr-20 16:30N 51°58' E 004°08'0 0.0
2018-Apr-20 16:00N 51°58' E 004°08'2 4.6
2018-Apr-20 15:31N 51°57' E 004°05'1 2.6
2018-Apr-20 15:01N 51°56' E 004°03'0 0.4
2018-Apr-20 14:30N 51°56' E 004°03'2 3.4
2018-Apr-20 14:01N 51°58' E 004°05'2 3.9
2018-Apr-20 13:30N 51°59' E 004°03'2 4.2
2018-Apr-20 13:00N 51°58' E 004°06'1 2.7
2018-Apr-20 12:30N 51°58' E 004°08'0 0.0
2018-Apr-20 12:01N 51°58' E 004°08'0 0.0
2018-Apr-20 11:31N 51°58' E 004°08'0 0.0
2018-Apr-20 11:00N 51°58' E 004°08'0 0.0
2018-Apr-20 10:30N 51°58' E 004°08'0 0.0
2018-Apr-20 10:01N 51°58' E 004°08'0 0.0
2018-Apr-20 09:31N 51°58' E 004°08'0 0.0
2018-Apr-20 09:01N 51°58' E 004°08'0 0.0
2018-Apr-20 08:30N 51°58' E 004°08'0 0.0
2018-Apr-20 08:01N 51°58' E 004°08'0 0.0
2018-Apr-20 07:31N 51°58' E 004°08'0 0.0
2018-Apr-20 07:00N 51°58' E 004°08'0 0.0
2018-Apr-20 06:31N 51°58' E 004°08'0 0.0
2018-Apr-20 06:00N 51°58' E 004°08'0 0.0
2018-Apr-20 05:30N 51°58' E 004°08'0 0.0
2018-Apr-20 05:01N 51°58' E 004°08'0 0.0
2018-Apr-20 04:31N 51°58' E 004°08'0 0.0
2018-Apr-20 04:01N 51°58' E 004°08'0 0.0
2018-Apr-20 03:30N 51°58' E 004°08'0 0.0
2018-Apr-20 03:01N 51°58' E 004°08'0 0.0
2018-Apr-20 02:31N 51°58' E 004°08'0 0.0
2018-Apr-20 02:01N 51°58' E 004°08'0 0.0
2018-Apr-20 01:31N 51°58' E 004°08'0 0.0
2018-Apr-20 01:00N 51°58' E 004°08'0 0.0
2018-Apr-20 00:31N 51°58' E 004°08'0 0.0
2018-Apr-20 00:00N 51°58' E 004°08'0 0.0
2018-Apr-19 23:31N 51°58' E 004°08'0 0.0
2018-Apr-19 23:00N 51°58' E 004°08'0 0.0
2018-Apr-19 22:31N 51°58' E 004°08'0 0.0
2018-Apr-19 22:01N 51°58' E 004°08'0 0.0
2018-Apr-19 21:31N 51°58' E 004°08'0 0.0
2018-Apr-19 21:01N 51°58' E 004°08'0 0.0
2018-Apr-19 20:30N 51°58' E 004°08'0 0.0
2018-Apr-19 20:01N 51°58' E 004°08'0 0.0
2018-Apr-19 19:31N 51°58' E 004°08'0 0.0
2018-Apr-19 19:00N 51°58' E 004°08'0 0.0
2018-Apr-19 18:31N 51°58' E 004°08'0 0.0
2018-Apr-19 18:01N 51°58' E 004°08'0 0.0
2018-Apr-19 17:31N 51°58' E 004°08'0 0.0
2018-Apr-19 17:00N 51°58' E 004°08'0 0.0
2018-Apr-19 16:31N 51°58' E 004°08'0 0.0
2018-Apr-19 16:00N 51°58' E 004°08'0 0.0
2018-Apr-19 15:31N 51°58' E 004°08'0 0.0
2018-Apr-19 15:01N 51°58' E 004°08'0 0.0
2018-Apr-19 14:31N 51°58' E 004°08'0 0.0
2018-Apr-19 14:00N 51°58' E 004°08'0 0.0
2018-Apr-19 13:31N 51°58' E 004°08'0 0.0
2018-Apr-19 13:01N 51°58' E 004°08'0 0.6
2018-Apr-19 12:30N 51°58' E 004°08'1 1.3
2018-Apr-19 12:00N 51°57' E 004°08'1 1.7
2018-Apr-19 11:30N 51°58' E 004°08'0 0.0
2018-Apr-19 11:01N 51°58' E 004°08'0 0.0
2018-Apr-19 10:31N 51°58' E 004°08'0 0.0
2018-Apr-19 10:01N 51°58' E 004°08'0 0.0
2018-Apr-19 09:31N 51°58' E 004°08'0 0.0
2018-Apr-19 09:00N 51°58' E 004°08'0 0.0
2018-Apr-19 08:30N 51°58' E 004°08'0 0.0
2018-Apr-19 08:01N 51°58' E 004°08'0 0.0
2018-Apr-19 07:31N 51°58' E 004°08'0 0.0
2018-Apr-19 07:01N 51°58' E 004°08'0 0.0
2018-Apr-19 06:31N 51°58' E 004°08'0 0.0
2018-Apr-19 06:01N 51°58' E 004°08'0 0.0
2018-Apr-19 05:31N 51°58' E 004°08'0 0.0
2018-Apr-19 05:01N 51°58' E 004°08'0 0.0
2018-Apr-19 04:31N 51°58' E 004°08'0 0.0
2018-Apr-19 04:00N 51°58' E 004°08'0 0.0
2018-Apr-19 03:31N 51°58' E 004°08'0 0.0
2018-Apr-19 03:01N 51°58' E 004°08'0 0.0
2018-Apr-19 02:31N 51°58' E 004°08'0 0.0
2018-Apr-19 02:01N 51°58' E 004°08'0 0.0
2018-Apr-19 01:31N 51°58' E 004°08'0 0.0
2018-Apr-19 01:00N 51°58' E 004°08'0 0.0
2018-Apr-19 00:31N 51°58' E 004°08'0 0.0
2018-Apr-19 00:01N 51°58' E 004°08'0 0.0
2018-Apr-18 23:31N 51°58' E 004°08'0 0.0
2018-Apr-18 23:01N 51°58' E 004°08'0 0.0
2018-Apr-18 22:31N 51°58' E 004°08'0 0.0
2018-Apr-18 22:00N 51°58' E 004°08'1 1.1
2018-Apr-18 21:31N 51°57' E 004°09'3 6.3
2018-Apr-18 21:01N 51°55' E 004°12'0 0.1
2018-Apr-18 20:31N 51°55' E 004°12'0 0.5
2018-Apr-18 20:01N 51°55' E 004°12'2 3.8
2018-Apr-18 19:31N 51°57' E 004°10'1 1.7
2018-Apr-18 19:01N 51°56' E 004°11'1 2.5
2018-Apr-18 18:30N 51°55' E 004°13'0 0.0
2018-Apr-18 18:00N 51°55' E 004°13'1 1.4
2018-Apr-18 17:31N 51°55' E 004°13'1 2.9
2018-Apr-18 17:01N 51°54' E 004°15'0 0.1
2018-Apr-18 16:30N 51°54' E 004°15'0 0.0
2018-Apr-18 16:01N 51°54' E 004°15'0 0.0
2018-Apr-18 15:30N 51°54' E 004°15'0 0.1
2018-Apr-18 15:01N 51°54' E 004°15'3 5.8
2018-Apr-18 14:31N 51°56' E 004°12'3 5.7
2018-Apr-18 14:01N 51°58' E 004°08'0 0.0
2018-Apr-18 13:31N 51°58' E 004°08'0 0.0
2018-Apr-18 13:01N 51°58' E 004°08'0 0.0
2018-Apr-18 12:30N 51°58' E 004°08'0 0.0
2018-Apr-18 12:01N 51°58' E 004°08'0 0.0
2018-Apr-18 11:31N 51°58' E 004°08'0 0.0
2018-Apr-18 11:00N 51°58' E 004°08'0 0.0
2018-Apr-18 10:31N 51°58' E 004°08'0 0.0
2018-Apr-18 10:01N 51°58' E 004°08'0 0.0
2018-Apr-18 09:31N 51°58' E 004°08'0 0.0
2018-Apr-18 09:01N 51°58' E 004°08'0 0.0
2018-Apr-18 08:31N 51°58' E 004°08'0 0.0
2018-Apr-18 08:01N 51°58' E 004°08'0 0.0
2018-Apr-18 07:31N 51°58' E 004°08'0 0.0
2018-Apr-18 07:01N 51°58' E 004°08'0 0.0
2018-Apr-18 06:31N 51°58' E 004°08'0 0.0
2018-Apr-18 06:01N 51°58' E 004°08'0 0.0
2018-Apr-18 05:30N 51°58' E 004°08'0 0.0
2018-Apr-18 05:00N 51°58' E 004°08'0 0.0
2018-Apr-18 04:31N 51°58' E 004°08'0 0.0
2018-Apr-18 04:01N 51°58' E 004°08'0 0.0
2018-Apr-18 03:30N 51°58' E 004°08'0 0.0
2018-Apr-18 03:01N 51°58' E 004°08'0 0.0
2018-Apr-18 02:30N 51°58' E 004°08'0 0.0
2018-Apr-18 02:01N 51°58' E 004°08'0 0.0
2018-Apr-18 01:31N 51°58' E 004°08'0 0.0
2018-Apr-18 01:01N 51°58' E 004°08'0 0.0
2018-Apr-18 00:30N 51°58' E 004°08'0 0.0
2018-Apr-18 00:01N 51°58' E 004°08'0 0.0
2018-Apr-17 23:30N 51°58' E 004°08'0 0.0
2018-Apr-17 23:01N 51°58' E 004°08'0 0.0
2018-Apr-17 22:31N 51°58' E 004°08'0 0.0
2018-Apr-17 22:01N 51°58' E 004°08'0 0.0
2018-Apr-17 21:30N 51°58' E 004°08'0 0.0
2018-Apr-17 21:01N 51°58' E 004°08'0 0.0
2018-Apr-17 20:31N 51°58' E 004°08'0 0.0
2018-Apr-17 20:01N 51°58' E 004°08'0 0.0
2018-Apr-17 19:31N 51°58' E 004°08'2 4.2
2018-Apr-17 19:00N 51°59' E 004°05'0 0.9
2018-Apr-17 18:30N 51°58' E 004°05'0 0.1
2018-Apr-17 18:01N 51°58' E 004°05'0 0.9
2018-Apr-17 17:30N 51°58' E 004°05'2 3.8
2018-Apr-17 17:00N 51°57' E 004°08'1 1.4
2018-Apr-17 16:31N 51°58' E 004°08'0 0.9
2018-Apr-17 16:01N 51°58' E 004°08'0 0.3
2018-Apr-17 15:31N 51°58' E 004°08'0 0.0
2018-Apr-17 15:00N 51°58' E 004°08'0 0.0
2018-Apr-17 14:31N 51°58' E 004°08'0 0.0
2018-Apr-17 14:01N 51°58' E 004°08'0 0.7
2018-Apr-17 13:31N 51°57' E 004°09'1 1.0
2018-Apr-17 13:01N 51°57' E 004°09'0 0.0
2018-Apr-17 12:30N 51°57' E 004°09'0 0.0
2018-Apr-17 12:01N 51°57' E 004°09'2 5.0
2018-Apr-17 11:31N 51°55' E 004°12'0 0.6
2018-Apr-17 11:01N 51°56' E 004°12'2 4.6
2018-Apr-17 10:31N 51°57' E 004°09'1 1.6
2018-Apr-17 10:00N 51°58' E 004°08'0 0.0
2018-Apr-17 09:30N 51°58' E 004°08'0 0.0
2018-Apr-17 09:01N 51°58' E 004°08'0 0.0
2018-Apr-17 08:31N 51°58' E 004°08'0 0.0
2018-Apr-17 08:00N 51°58' E 004°08'0 0.0
2018-Apr-17 07:30N 51°58' E 004°08'0 0.0
2018-Apr-17 07:01N 51°58' E 004°08'0 0.0
2018-Apr-17 06:30N 51°58' E 004°08'0 0.0
2018-Apr-17 06:01N 51°58' E 004°08'0 0.0
2018-Apr-17 05:30N 51°58' E 004°08'0 0.0
2018-Apr-17 05:00N 51°58' E 004°08'0 0.0
2018-Apr-17 04:31N 51°58' E 004°08'0 0.0
2018-Apr-17 04:01N 51°58' E 004°08'0 0.0
2018-Apr-17 03:30N 51°58' E 004°08'0 0.0
2018-Apr-17 03:00N 51°58' E 004°08'0 0.0
2018-Apr-17 02:31N 51°58' E 004°08'0 0.0
2018-Apr-17 02:00N 51°58' E 004°08'0 0.0
2018-Apr-17 01:31N 51°58' E 004°08'0 0.0
2018-Apr-17 01:00N 51°58' E 004°08'0 0.0
2018-Apr-17 00:31N 51°58' E 004°08'0 0.0
2018-Apr-17 00:00N 51°58' E 004°08'0 0.0
2018-Apr-16 23:31N 51°58' E 004°08'0 0.0
2018-Apr-16 23:01N 51°58' E 004°08'0 0.0
2018-Apr-16 22:31N 51°58' E 004°08'0 0.0
2018-Apr-16 22:01N 51°58' E 004°08'0 0.0
2018-Apr-16 21:31N 51°58' E 004°08'0 0.0
2018-Apr-16 21:01N 51°58' E 004°08'0 0.0
2018-Apr-16 20:31N 51°58' E 004°08'0 0.0
2018-Apr-16 20:01N 51°58' E 004°08'0 0.0
2018-Apr-16 19:31N 51°58' E 004°08'0 0.0
2018-Apr-16 19:01N 51°58' E 004°08'0 0.0
2018-Apr-16 18:30N 51°58' E 004°08'0 0.0
2018-Apr-16 18:00N 51°58' E 004°08'0 0.0
2018-Apr-16 17:31N 51°58' E 004°08'2 4.6
2018-Apr-16 17:01N 51°57' E 004°05'1 1.7
2018-Apr-16 16:31N 51°57' E 004°03'2 3.7
2018-Apr-16 16:01N 51°58' E 004°05'0 0.5
2018-Apr-16 15:31N 51°59' E 004°05'2 3.4
2018-Apr-16 15:01N 51°57' E 004°04'1 1.2
2018-Apr-16 14:31N 51°57' E 004°03'2 3.4
2018-Apr-16 14:01N 51°58' E 004°05'2 3.9
2018-Apr-16 13:31N 51°58' E 004°08'0 0.0
2018-Apr-16 13:00N 51°58' E 004°08'0 0.0
2018-Apr-16 12:31N 51°58' E 004°08'0 0.0
2018-Apr-16 12:01N 51°58' E 004°08'0 0.0
2018-Apr-16 11:31N 51°58' E 004°08'0 0.0
2018-Apr-16 11:01N 51°58' E 004°08'0 0.0
2018-Apr-16 10:30N 51°58' E 004°08'0 0.0
2018-Apr-16 10:00N 51°58' E 004°08'0 0.0
2018-Apr-16 09:30N 51°58' E 004°08'0 0.0
2018-Apr-16 09:01N 51°58' E 004°08'0 0.0
2018-Apr-16 08:30N 51°58' E 004°08'0 0.0
2018-Apr-16 08:01N 51°58' E 004°08'0 0.0
2018-Apr-16 07:31N 51°58' E 004°08'0 0.0
2018-Apr-16 07:00N 51°58' E 004°08'0 0.0
2018-Apr-16 06:30N 51°58' E 004°08'0 0.0
2018-Apr-16 06:00N 51°58' E 004°08'0 0.0
2018-Apr-16 05:31N 51°58' E 004°08'0 0.0
2018-Apr-16 05:00N 51°58' E 004°08'0 0.0
2018-Apr-16 04:31N 51°58' E 004°08'0 0.0
2018-Apr-16 04:01N 51°58' E 004°08'0 0.0
2018-Apr-16 03:31N 51°58' E 004°08'0 0.0
2018-Apr-16 03:00N 51°58' E 004°08'0 0.0
2018-Apr-16 02:31N 51°58' E 004°08'0 0.0
2018-Apr-16 02:01N 51°58' E 004°08'0 0.0
2018-Apr-16 01:31N 51°58' E 004°08'0 0.0
2018-Apr-16 01:00N 51°58' E 004°08'0 0.0
2018-Apr-16 00:31N 51°58' E 004°08'0 0.0
2018-Apr-16 00:01N 51°58' E 004°08'0 0.0
2018-Apr-15 23:30N 51°58' E 004°08'0 0.0
2018-Apr-15 23:00N 51°58' E 004°08'0 0.0
2018-Apr-15 22:30N 51°58' E 004°08'0 0.0
2018-Apr-15 22:00N 51°58' E 004°08'0 0.0
2018-Apr-15 21:30N 51°58' E 004°08'0 0.0
2018-Apr-15 21:01N 51°58' E 004°08'0 0.0
2018-Apr-15 20:30N 51°58' E 004°08'0 0.0
2018-Apr-15 20:00N 51°58' E 004°08'0 0.0
2018-Apr-15 19:31N 51°58' E 004°08'0 0.0
2018-Apr-15 19:01N 51°58' E 004°08'0 0.0
2018-Apr-15 18:31N 51°58' E 004°08'1 1.3
2018-Apr-15 18:01N 51°57' E 004°09'1 1.4
2018-Apr-15 17:31N 51°57' E 004°10'0 0.2
2018-Apr-15 17:01N 51°57' E 004°10'1 1.6
2018-Apr-15 16:30N 51°57' E 004°09'2 4.7
2018-Apr-15 16:01N 51°58' E 004°05'1 1.1
2018-Apr-15 15:31N 51°58' E 004°04'0 0.0
2018-Apr-15 15:01N 51°58' E 004°04'2 4.8
2018-Apr-15 14:31N 51°58' E 004°08'0 0.2
2018-Apr-15 14:01N 51°58' E 004°08'0 0.0
2018-Apr-15 13:31N 51°58' E 004°08'0 0.0
2018-Apr-15 13:01N 51°58' E 004°08'0 0.0
2018-Apr-15 12:31N 51°58' E 004°08'0 0.0
2018-Apr-15 12:01N 51°58' E 004°08'1 2.1
2018-Apr-15 11:31N 51°58' E 004°07'0 0.1
2018-Apr-15 11:00N 51°58' E 004°07'1 2.1
2018-Apr-15 10:31N 51°59' E 004°05'0 0.3
2018-Apr-15 10:01N 51°59' E 004°06'2 3.9
2018-Apr-15 09:31N 51°58' E 004°08'0 0.0
2018-Apr-15 09:01N 51°58' E 004°08'0 0.0
2018-Apr-15 08:30N 51°58' E 004°08'0 0.0
2018-Apr-15 08:01N 51°58' E 004°08'0 0.0
2018-Apr-15 07:31N 51°58' E 004°08'0 0.0
2018-Apr-15 07:00N 51°58' E 004°08'0 0.0
2018-Apr-15 06:31N 51°58' E 004°08'0 0.0
2018-Apr-15 06:01N 51°58' E 004°08'0 0.0
2018-Apr-15 05:31N 51°58' E 004°08'0 0.0
2018-Apr-15 05:01N 51°58' E 004°08'0 0.0
2018-Apr-15 04:31N 51°58' E 004°08'0 0.0
2018-Apr-15 04:01N 51°58' E 004°08'0 0.0
2018-Apr-15 03:31N 51°58' E 004°08'0 0.0
2018-Apr-15 03:01N 51°58' E 004°08'0 0.0
2018-Apr-15 02:31N 51°58' E 004°08'0 0.0
2018-Apr-15 02:01N 51°58' E 004°08'0 0.0
2018-Apr-15 01:31N 51°58' E 004°08'0 0.0
2018-Apr-15 01:01N 51°58' E 004°08'0 0.0
2018-Apr-15 00:30N 51°58' E 004°08'0 0.0
2018-Apr-15 00:01N 51°58' E 004°08'0 0.0
2018-Apr-14 23:31N 51°58' E 004°08'0 0.0
2018-Apr-14 23:00N 51°58' E 004°08'0 0.0
2018-Apr-14 22:30N 51°58' E 004°08'0 0.0
2018-Apr-14 22:00N 51°58' E 004°08'0 0.0
2018-Apr-14 21:31N 51°58' E 004°08'0 0.0
2018-Apr-14 21:01N 51°58' E 004°08'2 4.3
2018-Apr-14 20:31N 51°58' E 004°05'1 1.5
2018-Apr-14 20:01N 51°58' E 004°04'1 2.5
2018-Apr-14 19:31N 51°59' E 004°05'0 0.4
2018-Apr-14 19:01N 51°58' E 004°05'2 3.1
2018-Apr-14 18:31N 51°57' E 004°06'0 0.0
2018-Apr-14 18:01N 51°57' E 004°06'0 0.8
2018-Apr-14 17:31N 51°57' E 004°05'1 1.3
2018-Apr-14 17:01N 51°58' E 004°05'0 0.6
2018-Apr-14 16:31N 51°58' E 004°04'0 0.1
2018-Apr-14 16:01N 51°58' E 004°04'2 5.0
2018-Apr-14 15:31N 51°57' E 004°08'0 0.3
2018-Apr-14 15:01N 51°57' E 004°08'1 1.2
2018-Apr-14 14:31N 51°57' E 004°09'3 5.0
2018-Apr-14 14:00N 51°55' E 004°12'0 0.7
2018-Apr-14 13:31N 51°56' E 004°12'5 9.5
2018-Apr-14 13:01N 51°58' E 004°06'1 1.6
2018-Apr-14 12:30N 51°58' E 004°04'0 0.3
2018-Apr-14 12:00N 51°58' E 004°04'1 1.6
2018-Apr-14 11:31N 51°59' E 004°05'0 0.5
2018-Apr-14 11:01N 51°59' E 004°05'2 3.0
2018-Apr-14 10:31N 51°58' E 004°03'0 0.2
2018-Apr-14 10:01N 51°58' E 004°03'1 2.4
2018-Apr-14 09:31N 51°58' E 004°02'2 3.2
2018-Apr-14 09:01N 51°58' E 004°04'1 1.8
2018-Apr-14 08:31N 51°59' E 004°04'3 5.5
2018-Apr-14 08:01N 51°58' E 004°08'0 0.0
2018-Apr-14 07:31N 51°58' E 004°08'0 0.0
2018-Apr-14 07:01N 51°58' E 004°08'0 0.0
2018-Apr-14 06:30N 51°58' E 004°08'0 0.0
2018-Apr-14 06:01N 51°58' E 004°08'0 0.0
2018-Apr-14 05:30N 51°58' E 004°08'0 0.0
2018-Apr-14 05:01N 51°58' E 004°08'0 0.0
2018-Apr-14 04:31N 51°58' E 004°08'0 0.0
2018-Apr-14 04:01N 51°58' E 004°08'0 0.0
2018-Apr-14 03:31N 51°58' E 004°08'0 0.0
2018-Apr-14 03:01N 51°58' E 004°08'0 0.0
2018-Apr-14 02:30N 51°58' E 004°08'0 0.0
2018-Apr-14 02:00N 51°58' E 004°08'0 0.0
2018-Apr-14 01:30N 51°58' E 004°08'0 0.0
2018-Apr-14 01:01N 51°58' E 004°08'0 0.0
2018-Apr-14 00:31N 51°58' E 004°08'0 0.0
2018-Apr-14 00:01N 51°58' E 004°08'0 0.0
2018-Apr-13 23:31N 51°58' E 004°08'0 0.0
2018-Apr-13 23:01N 51°58' E 004°08'0 0.0
2018-Apr-13 22:31N 51°58' E 004°08'0 0.0
2018-Apr-13 22:01N 51°58' E 004°08'0 0.0
2018-Apr-13 21:31N 51°58' E 004°08'0 0.0
2018-Apr-13 21:00N 51°58' E 004°08'0 0.0
2018-Apr-13 20:31N 51°58' E 004°08'0 0.0
2018-Apr-13 20:01N 51°58' E 004°08'0 0.0
2018-Apr-13 19:31N 51°58' E 004°08'0 0.0
2018-Apr-13 19:00N 51°58' E 004°08'0 0.9
2018-Apr-13 18:31N 51°57' E 004°09'1 2.1
2018-Apr-13 18:01N 51°58' E 004°07'0 0.4
2018-Apr-13 17:30N 51°58' E 004°07'1 1.1
2018-Apr-13 17:00N 51°58' E 004°08'0 0.4
2018-Apr-13 16:01N 51°58' E 004°08'0 0.0
2018-Apr-13 14:31N 51°58' E 004°08'0 0.0
2018-Apr-13 14:01N 51°58' E 004°08'0 0.0
2018-Apr-13 13:31N 51°58' E 004°08'0 0.0
2018-Apr-13 13:01N 51°58' E 004°08'0 0.0
2018-Apr-13 12:31N 51°58' E 004°08'0 0.0
2018-Apr-13 12:00N 51°58' E 004°08'0 0.0
2018-Apr-13 11:30N 51°58' E 004°08'0 0.0
2018-Apr-13 11:00N 51°58' E 004°08'0 0.0
2018-Apr-13 10:30N 51°58' E 004°08'0 0.0
2018-Apr-13 10:00N 51°58' E 004°08'0 0.0
2018-Apr-13 09:30N 51°58' E 004°08'0 0.0
2018-Apr-13 09:00N 51°58' E 004°08'0 0.0
2018-Apr-13 08:30N 51°58' E 004°08'0 0.0
2018-Apr-13 08:00N 51°58' E 004°08'0 0.0
2018-Apr-13 07:30N 51°58' E 004°08'0 0.0
2018-Apr-13 07:00N 51°58' E 004°08'0 0.0
2018-Apr-13 06:30N 51°58' E 004°08'0 0.0
2018-Apr-13 06:00N 51°58' E 004°08'0 0.0
2018-Apr-13 05:30N 51°58' E 004°08'0 0.0
2018-Apr-13 05:00N 51°58' E 004°08'0 0.0
2018-Apr-13 04:30N 51°58' E 004°08'0 0.0
2018-Apr-13 04:00N 51°58' E 004°08'0 0.0
2018-Apr-13 03:30N 51°58' E 004°08'0 0.0
2018-Apr-13 03:00N 51°58' E 004°08'0 0.0
2018-Apr-13 02:30N 51°58' E 004°08'0 0.0
2018-Apr-13 02:00N 51°58' E 004°08'0 0.0
2018-Apr-13 01:30N 51°58' E 004°08'0 0.0
2018-Apr-13 01:00N 51°58' E 004°08'0 0.0
2018-Apr-13 00:30N 51°58' E 004°08'0 0.0
2018-Apr-13 00:00N 51°58' E 004°08'0 0.0
2018-Apr-12 23:30N 51°58' E 004°08'0 0.0
2018-Apr-12 23:00N 51°58' E 004°08'0 0.0
2018-Apr-12 22:30N 51°58' E 004°08'0 0.0
2018-Apr-12 22:00N 51°58' E 004°08'0 0.0
2018-Apr-12 21:30N 51°58' E 004°08'0 0.0
2018-Apr-12 21:00N 51°58' E 004°08'0 0.0
2018-Apr-12 20:30N 51°58' E 004°08'0 0.0
2018-Apr-12 20:00N 51°58' E 004°08'0 0.0
2018-Apr-12 19:30N 51°58' E 004°08'0 0.0
2018-Apr-12 19:00N 51°58' E 004°08'0 0.0
2018-Apr-12 18:30N 51°58' E 004°08'0 0.0
2018-Apr-12 18:00N 51°58' E 004°08'0 0.0
2018-Apr-12 17:30N 51°58' E 004°08'0 0.0
2018-Apr-12 17:00N 51°58' E 004°08'0 0.0
2018-Apr-12 16:30N 51°58' E 004°08'0 0.0
2018-Apr-12 16:00N 51°58' E 004°08'0 0.0
2018-Apr-12 15:30N 51°58' E 004°08'0 0.0
2018-Apr-12 15:00N 51°58' E 004°08'  
Track history (hours):
 
Tides and Currents Weather Stations Pressure Air Temp Water Temp Dewpoint Dewpoint Depression Visibility Wind Speed Wind Dir Waves Ship Positions

Smitwijs London

Last reported at 2018-Apr-22 14:31 UTC. Time now 2018-Apr-22 14:42 UTC.
Position N 51°58' E 004°08'.

Length 75 m; beam 16 m.

Type: Tug. MMSI: 244098956.

Date/timePositionNaut miles runAvg speedWind from/ knotsBaromVisibWave heightAir tempDewpointWater temp
2018-Apr-22 14:31N 51°58' E 004°08'0 0.0
2018-Apr-22 14:01N 51°58' E 004°08'0 0.0
2018-Apr-22 13:30N 51°58' E 004°08'0 0.0
2018-Apr-22 13:01N 51°58' E 004°08'1 2.0
2018-Apr-22 12:30N 51°57' E 004°10'2 4.0
2018-Apr-22 12:01N 51°56' E 004°12'0 0.4
2018-Apr-22 11:31N 51°56' E 004°12'3 5.2
2018-Apr-22 11:00N 51°57' E 004°09'0 0.8
2018-Apr-22 10:31N 51°58' E 004°08'0 0.0
2018-Apr-22 10:01N 51°58' E 004°08'0 0.0
2018-Apr-22 09:31N 51°58' E 004°08'0 0.0
2018-Apr-22 09:00N 51°58' E 004°08'0 0.0
2018-Apr-22 08:31N 51°58' E 004°08'0 0.0
2018-Apr-22 08:00N 51°58' E 004°08'0 0.0
2018-Apr-22 07:30N 51°58' E 004°08'0 0.0
2018-Apr-22 07:01N 51°58' E 004°08'0 0.0
2018-Apr-22 06:31N 51°58' E 004°08'0 0.0
2018-Apr-22 06:00N 51°58' E 004°08'0 0.0
2018-Apr-22 05:30N 51°58' E 004°08'0 0.0
2018-Apr-22 05:00N 51°58' E 004°08'0 0.0
2018-Apr-22 04:31N 51°58' E 004°08'0 0.0
2018-Apr-22 04:00N 51°58' E 004°08'0 0.0
2018-Apr-22 03:31N 51°58' E 004°08'0 0.0
2018-Apr-22 03:01N 51°58' E 004°08'0 0.0
2018-Apr-22 02:31N 51°58' E 004°08'0 0.0
2018-Apr-22 02:00N 51°58' E 004°08'0 0.0
2018-Apr-22 01:31N 51°58' E 004°08'0 0.0
2018-Apr-22 01:01N 51°58' E 004°08'0 0.0
2018-Apr-22 00:30N 51°58' E 004°08'0 0.0
2018-Apr-22 00:01N 51°58' E 004°08'0 0.0
2018-Apr-21 23:31N 51°58' E 004°08'1 1.2
2018-Apr-21 23:01N 51°57' E 004°09'3 6.0
2018-Apr-21 22:30N 51°55' E 004°12'0 0.5
2018-Apr-21 22:01N 51°55' E 004°12'2 4.3
2018-Apr-21 21:31N 51°57' E 004°10'1 2.1
2018-Apr-21 21:01N 51°57' E 004°08'0 0.7
2018-Apr-21 20:31N 51°58' E 004°08'0 0.0
2018-Apr-21 20:01N 51°58' E 004°08'0 0.0
2018-Apr-21 19:31N 51°58' E 004°08'0 0.6
2018-Apr-21 19:01N 51°58' E 004°08'2 4.2
2018-Apr-21 18:30N 51°58' E 004°04'0 0.0
2018-Apr-21 18:01N 51°58' E 004°04'0 0.5
2018-Apr-21 17:31N 51°58' E 004°05'1 2.6
2018-Apr-21 17:01N 51°59' E 004°04'1 2.8
2018-Apr-21 16:31N 51°58' E 004°04'0 0.0
2018-Apr-21 16:01N 51°58' E 004°04'0 0.0
2018-Apr-21 15:31N 51°58' E 004°04'2 3.1
2018-Apr-21 15:01N 51°58' E 004°02'2 3.4
2018-Apr-21 14:30N 51°58' E 003°59'0 0.6
2018-Apr-21 14:00N 51°58' E 003°60'2 4.0
2018-Apr-21 13:31N 51°58' E 004°03'1 2.1
2018-Apr-21 13:01N 51°59' E 004°04'3 5.8
2018-Apr-21 12:31N 51°58' E 004°08'0 0.0
2018-Apr-21 12:01N 51°58' E 004°08'0 0.0
2018-Apr-21 11:31N 51°58' E 004°08'0 0.0
2018-Apr-21 11:01N 51°58' E 004°08'0 0.0
2018-Apr-21 10:31N 51°58' E 004°08'0 0.0
2018-Apr-21 10:01N 51°58' E 004°08'0 0.0
2018-Apr-21 09:31N 51°58' E 004°08'0 0.0
2018-Apr-21 09:01N 51°58' E 004°08'0 0.0
2018-Apr-21 08:31N 51°58' E 004°08'0 0.0
2018-Apr-21 08:01N 51°58' E 004°08'0 0.0
2018-Apr-21 07:31N 51°58' E 004°08'0 0.0
2018-Apr-21 07:01N 51°58' E 004°08'0 0.0
2018-Apr-21 06:31N 51°58' E 004°08'0 0.0
2018-Apr-21 06:01N 51°58' E 004°08'0 0.0
2018-Apr-21 05:30N 51°58' E 004°08'0 0.0
2018-Apr-21 05:01N 51°58' E 004°08'0 0.0
2018-Apr-21 04:31N 51°58' E 004°08'0 0.0
2018-Apr-21 04:00N 51°58' E 004°08'0 0.0
2018-Apr-21 03:31N 51°58' E 004°08'0 0.0
2018-Apr-21 03:01N 51°58' E 004°08'0 0.0
2018-Apr-21 02:30N 51°58' E 004°08'0 0.0
2018-Apr-21 02:01N 51°58' E 004°08'0 0.0
2018-Apr-21 01:31N 51°58' E 004°08'0 0.0
2018-Apr-21 01:00N 51°58' E 004°08'0 0.0
2018-Apr-21 00:31N 51°58' E 004°08'0 0.0
2018-Apr-21 00:01N 51°58' E 004°08'0 0.0
2018-Apr-20 23:30N 51°58' E 004°08'0 0.0
2018-Apr-20 23:00N 51°58' E 004°08'0 0.0
2018-Apr-20 22:31N 51°58' E 004°08'0 0.0
2018-Apr-20 22:01N 51°58' E 004°08'0 0.0
2018-Apr-20 21:30N 51°58' E 004°08'0 0.0
2018-Apr-20 21:00N 51°58' E 004°08'0 0.0
2018-Apr-20 20:31N 51°58' E 004°08'0 0.0
2018-Apr-20 20:00N 51°58' E 004°08'0 0.3
2018-Apr-20 19:31N 51°58' E 004°09'3 6.1
2018-Apr-20 19:01N 51°55' E 004°12'0 0.9
2018-Apr-20 18:31N 51°56' E 004°12'2 4.9
2018-Apr-20 18:01N 51°57' E 004°09'0 1.0
2018-Apr-20 17:31N 51°58' E 004°08'0 0.0
2018-Apr-20 17:01N 51°58' E 004°08'0 0.0
2018-Apr-20 16:30N 51°58' E 004°08'0 0.0
2018-Apr-20 16:00N 51°58' E 004°08'2 4.6
2018-Apr-20 15:31N 51°57' E 004°05'1 2.6
2018-Apr-20 15:01N 51°56' E 004°03'0 0.4
2018-Apr-20 14:30N 51°56' E 004°03'2 3.4
2018-Apr-20 14:01N 51°58' E 004°05'2 3.9
2018-Apr-20 13:30N 51°59' E 004°03'2 4.2
2018-Apr-20 13:00N 51°58' E 004°06'1 2.7
2018-Apr-20 12:30N 51°58' E 004°08'0 0.0
2018-Apr-20 12:01N 51°58' E 004°08'0 0.0
2018-Apr-20 11:31N 51°58' E 004°08'0 0.0
2018-Apr-20 11:00N 51°58' E 004°08'0 0.0
2018-Apr-20 10:30N 51°58' E 004°08'0 0.0
2018-Apr-20 10:01N 51°58' E 004°08'0 0.0
2018-Apr-20 09:31N 51°58' E 004°08'0 0.0
2018-Apr-20 09:01N 51°58' E 004°08'0 0.0
2018-Apr-20 08:30N 51°58' E 004°08'0 0.0
2018-Apr-20 08:01N 51°58' E 004°08'0 0.0
2018-Apr-20 07:31N 51°58' E 004°08'0 0.0
2018-Apr-20 07:00N 51°58' E 004°08'0 0.0
2018-Apr-20 06:31N 51°58' E 004°08'0 0.0
2018-Apr-20 06:00N 51°58' E 004°08'0 0.0
2018-Apr-20 05:30N 51°58' E 004°08'0 0.0
2018-Apr-20 05:01N 51°58' E 004°08'0 0.0
2018-Apr-20 04:31N 51°58' E 004°08'0 0.0
2018-Apr-20 04:01N 51°58' E 004°08'0 0.0
2018-Apr-20 03:30N 51°58' E 004°08'0 0.0
2018-Apr-20 03:01N 51°58' E 004°08'0 0.0
2018-Apr-20 02:31N 51°58' E 004°08'0 0.0
2018-Apr-20 02:01N 51°58' E 004°08'0 0.0
2018-Apr-20 01:31N 51°58' E 004°08'0 0.0
2018-Apr-20 01:00N 51°58' E 004°08'0 0.0
2018-Apr-20 00:31N 51°58' E 004°08'0 0.0
2018-Apr-20 00:00N 51°58' E 004°08'0 0.0
2018-Apr-19 23:31N 51°58' E 004°08'0 0.0
2018-Apr-19 23:00N 51°58' E 004°08'0 0.0
2018-Apr-19 22:31N 51°58' E 004°08'0 0.0
2018-Apr-19 22:01N 51°58' E 004°08'0 0.0
2018-Apr-19 21:31N 51°58' E 004°08'0 0.0
2018-Apr-19 21:01N 51°58' E 004°08'0 0.0
2018-Apr-19 20:30N 51°58' E 004°08'0 0.0
2018-Apr-19 20:01N 51°58' E 004°08'0 0.0
2018-Apr-19 19:31N 51°58' E 004°08'0 0.0
2018-Apr-19 19:00N 51°58' E 004°08'0 0.0
2018-Apr-19 18:31N 51°58' E 004°08'0 0.0
2018-Apr-19 18:01N 51°58' E 004°08'0 0.0
2018-Apr-19 17:31N 51°58' E 004°08'0 0.0
2018-Apr-19 17:00N 51°58' E 004°08'0 0.0
2018-Apr-19 16:31N 51°58' E 004°08'0 0.0
2018-Apr-19 16:00N 51°58' E 004°08'0 0.0
2018-Apr-19 15:31N 51°58' E 004°08'0 0.0
2018-Apr-19 15:01N 51°58' E 004°08'0 0.0
2018-Apr-19 14:31N 51°58' E 004°08'0 0.0
2018-Apr-19 14:00N 51°58' E 004°08'0 0.0
2018-Apr-19 13:31N 51°58' E 004°08'0 0.0
2018-Apr-19 13:01N 51°58' E 004°08'0 0.6
2018-Apr-19 12:30N 51°58' E 004°08'1 1.3
2018-Apr-19 12:00N 51°57' E 004°08'1 1.7
2018-Apr-19 11:30N 51°58' E 004°08'0 0.0
2018-Apr-19 11:01N 51°58' E 004°08'0 0.0
2018-Apr-19 10:31N 51°58' E 004°08'0 0.0
2018-Apr-19 10:01N 51°58' E 004°08'0 0.0
2018-Apr-19 09:31N 51°58' E 004°08'0 0.0
2018-Apr-19 09:00N 51°58' E 004°08'0 0.0
2018-Apr-19 08:30N 51°58' E 004°08'0 0.0
2018-Apr-19 08:01N 51°58' E 004°08'0 0.0
2018-Apr-19 07:31N 51°58' E 004°08'0 0.0
2018-Apr-19 07:01N 51°58' E 004°08'0 0.0
2018-Apr-19 06:31N 51°58' E 004°08'0 0.0
2018-Apr-19 06:01N 51°58' E 004°08'0 0.0
2018-Apr-19 05:31N 51°58' E 004°08'0 0.0
2018-Apr-19 05:01N 51°58' E 004°08'0 0.0
2018-Apr-19 04:31N 51°58' E 004°08'0 0.0
2018-Apr-19 04:00N 51°58' E 004°08'0 0.0
2018-Apr-19 03:31N 51°58' E 004°08'0 0.0
2018-Apr-19 03:01N 51°58' E 004°08'0 0.0
2018-Apr-19 02:31N 51°58' E 004°08'0 0.0
2018-Apr-19 02:01N 51°58' E 004°08'0 0.0
2018-Apr-19 01:31N 51°58' E 004°08'0 0.0
2018-Apr-19 01:00N 51°58' E 004°08'0 0.0
2018-Apr-19 00:31N 51°58' E 004°08'0 0.0
2018-Apr-19 00:01N 51°58' E 004°08'0 0.0
2018-Apr-18 23:31N 51°58' E 004°08'0 0.0
2018-Apr-18 23:01N 51°58' E 004°08'0 0.0
2018-Apr-18 22:31N 51°58' E 004°08'0 0.0
2018-Apr-18 22:00N 51°58' E 004°08'1 1.1
2018-Apr-18 21:31N 51°57' E 004°09'3 6.3
2018-Apr-18 21:01N 51°55' E 004°12'0 0.1
2018-Apr-18 20:31N 51°55' E 004°12'0 0.5
2018-Apr-18 20:01N 51°55' E 004°12'2 3.8
2018-Apr-18 19:31N 51°57' E 004°10'1 1.7
2018-Apr-18 19:01N 51°56' E 004°11'1 2.5
2018-Apr-18 18:30N 51°55' E 004°13'0 0.0
2018-Apr-18 18:00N 51°55' E 004°13'1 1.4
2018-Apr-18 17:31N 51°55' E 004°13'1 2.9
2018-Apr-18 17:01N 51°54' E 004°15'0 0.1
2018-Apr-18 16:30N 51°54' E 004°15'0 0.0
2018-Apr-18 16:01N 51°54' E 004°15'0 0.0
2018-Apr-18 15:30N 51°54' E 004°15'0 0.1
2018-Apr-18 15:01N 51°54' E 004°15'3 5.8
2018-Apr-18 14:31N 51°56' E 004°12'3 5.7
2018-Apr-18 14:01N 51°58' E 004°08'0 0.0
2018-Apr-18 13:31N 51°58' E 004°08'0 0.0
2018-Apr-18 13:01N 51°58' E 004°08'0 0.0
2018-Apr-18 12:30N 51°58' E 004°08'0 0.0
2018-Apr-18 12:01N 51°58' E 004°08'0 0.0
2018-Apr-18 11:31N 51°58' E 004°08'0 0.0
2018-Apr-18 11:00N 51°58' E 004°08'0 0.0
2018-Apr-18 10:31N 51°58' E 004°08'0 0.0
2018-Apr-18 10:01N 51°58' E 004°08'0 0.0
2018-Apr-18 09:31N 51°58' E 004°08'0 0.0
2018-Apr-18 09:01N 51°58' E 004°08'0 0.0
2018-Apr-18 08:31N 51°58' E 004°08'0 0.0
2018-Apr-18 08:01N 51°58' E 004°08'0 0.0
2018-Apr-18 07:31N 51°58' E 004°08'0 0.0
2018-Apr-18 07:01N 51°58' E 004°08'0 0.0
2018-Apr-18 06:31N 51°58' E 004°08'0 0.0
2018-Apr-18 06:01N 51°58' E 004°08'0 0.0
2018-Apr-18 05:30N 51°58' E 004°08'0 0.0
2018-Apr-18 05:00N 51°58' E 004°08'0 0.0
2018-Apr-18 04:31N 51°58' E 004°08'0 0.0
2018-Apr-18 04:01N 51°58' E 004°08'0 0.0
2018-Apr-18 03:30N 51°58' E 004°08'0 0.0
2018-Apr-18 03:01N 51°58' E 004°08'0 0.0
2018-Apr-18 02:30N 51°58' E 004°08'0 0.0
2018-Apr-18 02:01N 51°58' E 004°08'0 0.0
2018-Apr-18 01:31N 51°58' E 004°08'0 0.0
2018-Apr-18 01:01N 51°58' E 004°08'0 0.0
2018-Apr-18 00:30N 51°58' E 004°08'0 0.0
2018-Apr-18 00:01N 51°58' E 004°08'0 0.0
2018-Apr-17 23:30N 51°58' E 004°08'0 0.0
2018-Apr-17 23:01N 51°58' E 004°08'0 0.0
2018-Apr-17 22:31N 51°58' E 004°08'0 0.0
2018-Apr-17 22:01N 51°58' E 004°08'0 0.0
2018-Apr-17 21:30N 51°58' E 004°08'0 0.0
2018-Apr-17 21:01N 51°58' E 004°08'0 0.0
2018-Apr-17 20:31N 51°58' E 004°08'0 0.0
2018-Apr-17 20:01N 51°58' E 004°08'0 0.0
2018-Apr-17 19:31N 51°58' E 004°08'2 4.2
2018-Apr-17 19:00N 51°59' E 004°05'0 0.9
2018-Apr-17 18:30N 51°58' E 004°05'0 0.1
2018-Apr-17 18:01N 51°58' E 004°05'0 0.9
2018-Apr-17 17:30N 51°58' E 004°05'2 3.8
2018-Apr-17 17:00N 51°57' E 004°08'1 1.4
2018-Apr-17 16:31N 51°58' E 004°08'0 0.9
2018-Apr-17 16:01N 51°58' E 004°08'0 0.3
2018-Apr-17 15:31N 51°58' E 004°08'0 0.0
2018-Apr-17 15:00N 51°58' E 004°08'0 0.0
2018-Apr-17 14:31N 51°58' E 004°08'0 0.0
2018-Apr-17 14:01N 51°58' E 004°08'0 0.7
2018-Apr-17 13:31N 51°57' E 004°09'1 1.0
2018-Apr-17 13:01N 51°57' E 004°09'0 0.0
2018-Apr-17 12:30N 51°57' E 004°09'0 0.0
2018-Apr-17 12:01N 51°57' E 004°09'2 5.0
2018-Apr-17 11:31N 51°55' E 004°12'0 0.6
2018-Apr-17 11:01N 51°56' E 004°12'2 4.6
2018-Apr-17 10:31N 51°57' E 004°09'1 1.6
2018-Apr-17 10:00N 51°58' E 004°08'0 0.0
2018-Apr-17 09:30N 51°58' E 004°08'0 0.0
2018-Apr-17 09:01N 51°58' E 004°08'0 0.0
2018-Apr-17 08:31N 51°58' E 004°08'0 0.0
2018-Apr-17 08:00N 51°58' E 004°08'0 0.0
2018-Apr-17 07:30N 51°58' E 004°08'0 0.0
2018-Apr-17 07:01N 51°58' E 004°08'0 0.0
2018-Apr-17 06:30N 51°58' E 004°08'0 0.0
2018-Apr-17 06:01N 51°58' E 004°08'0 0.0
2018-Apr-17 05:30N 51°58' E 004°08'0 0.0
2018-Apr-17 05:00N 51°58' E 004°08'0 0.0
2018-Apr-17 04:31N 51°58' E 004°08'0 0.0
2018-Apr-17 04:01N 51°58' E 004°08'0 0.0
2018-Apr-17 03:30N 51°58' E 004°08'0 0.0
2018-Apr-17 03:00N 51°58' E 004°08'0 0.0
2018-Apr-17 02:31N 51°58' E 004°08'0 0.0
2018-Apr-17 02:00N 51°58' E 004°08'0 0.0
2018-Apr-17 01:31N 51°58' E 004°08'0 0.0
2018-Apr-17 01:00N 51°58' E 004°08'0 0.0
2018-Apr-17 00:31N 51°58' E 004°08'0 0.0
2018-Apr-17 00:00N 51°58' E 004°08'0 0.0
2018-Apr-16 23:31N 51°58' E 004°08'0 0.0
2018-Apr-16 23:01N 51°58' E 004°08'0 0.0
2018-Apr-16 22:31N 51°58' E 004°08'0 0.0
2018-Apr-16 22:01N 51°58' E 004°08'0 0.0
2018-Apr-16 21:31N 51°58' E 004°08'0 0.0
2018-Apr-16 21:01N 51°58' E 004°08'0 0.0
2018-Apr-16 20:31N 51°58' E 004°08'0 0.0
2018-Apr-16 20:01N 51°58' E 004°08'0 0.0
2018-Apr-16 19:31N 51°58' E 004°08'0 0.0
2018-Apr-16 19:01N 51°58' E 004°08'0 0.0
2018-Apr-16 18:30N 51°58' E 004°08'0 0.0
2018-Apr-16 18:00N 51°58' E 004°08'0 0.0
2018-Apr-16 17:31N 51°58' E 004°08'2 4.6
2018-Apr-16 17:01N 51°57' E 004°05'1 1.7
2018-Apr-16 16:31N 51°57' E 004°03'2 3.7
2018-Apr-16 16:01N 51°58' E 004°05'0 0.5
2018-Apr-16 15:31N 51°59' E 004°05'2 3.4
2018-Apr-16 15:01N 51°57' E 004°04'1 1.2
2018-Apr-16 14:31N 51°57' E 004°03'2 3.4
2018-Apr-16 14:01N 51°58' E 004°05'2 3.9
2018-Apr-16 13:31N 51°58' E 004°08'0 0.0
2018-Apr-16 13:00N 51°58' E 004°08'0 0.0
2018-Apr-16 12:31N 51°58' E 004°08'0 0.0
2018-Apr-16 12:01N 51°58' E 004°08'0 0.0
2018-Apr-16 11:31N 51°58' E 004°08'0 0.0
2018-Apr-16 11:01N 51°58' E 004°08'0 0.0
2018-Apr-16 10:30N 51°58' E 004°08'0 0.0
2018-Apr-16 10:00N 51°58' E 004°08'0 0.0
2018-Apr-16 09:30N 51°58' E 004°08'0 0.0
2018-Apr-16 09:01N 51°58' E 004°08'0 0.0
2018-Apr-16 08:30N 51°58' E 004°08'0 0.0
2018-Apr-16 08:01N 51°58' E 004°08'0 0.0
2018-Apr-16 07:31N 51°58' E 004°08'0 0.0
2018-Apr-16 07:00N 51°58' E 004°08'0 0.0
2018-Apr-16 06:30N 51°58' E 004°08'0 0.0
2018-Apr-16 06:00N 51°58' E 004°08'0 0.0
2018-Apr-16 05:31N 51°58' E 004°08'0 0.0
2018-Apr-16 05:00N 51°58' E 004°08'0 0.0
2018-Apr-16 04:31N 51°58' E 004°08'0 0.0
2018-Apr-16 04:01N 51°58' E 004°08'0 0.0
2018-Apr-16 03:31N 51°58' E 004°08'0 0.0
2018-Apr-16 03:00N 51°58' E 004°08'0 0.0
2018-Apr-16 02:31N 51°58' E 004°08'0 0.0
2018-Apr-16 02:01N 51°58' E 004°08'0 0.0
2018-Apr-16 01:31N 51°58' E 004°08'0 0.0
2018-Apr-16 01:00N 51°58' E 004°08'0 0.0
2018-Apr-16 00:31N 51°58' E 004°08'0 0.0
2018-Apr-16 00:01N 51°58' E 004°08'0 0.0
2018-Apr-15 23:30N 51°58' E 004°08'0 0.0
2018-Apr-15 23:00N 51°58' E 004°08'0 0.0
2018-Apr-15 22:30N 51°58' E 004°08'0 0.0
2018-Apr-15 22:00N 51°58' E 004°08'0 0.0
2018-Apr-15 21:30N 51°58' E 004°08'0 0.0
2018-Apr-15 21:01N 51°58' E 004°08'0 0.0
2018-Apr-15 20:30N 51°58' E 004°08'0 0.0
2018-Apr-15 20:00N 51°58' E 004°08'0 0.0
2018-Apr-15 19:31N 51°58' E 004°08'0 0.0
2018-Apr-15 19:01N 51°58' E 004°08'0 0.0
2018-Apr-15 18:31N 51°58' E 004°08'1 1.3
2018-Apr-15 18:01N 51°57' E 004°09'1 1.4
2018-Apr-15 17:31N 51°57' E 004°10'0 0.2
2018-Apr-15 17:01N 51°57' E 004°10'1 1.6
2018-Apr-15 16:30N 51°57' E 004°09'2 4.7
2018-Apr-15 16:01N 51°58' E 004°05'1 1.1
2018-Apr-15 15:31N 51°58' E 004°04'0 0.0
2018-Apr-15 15:01N 51°58' E 004°04'2 4.8
2018-Apr-15 14:31N 51°58' E 004°08'0 0.2
2018-Apr-15 14:01N 51°58' E 004°08'0 0.0
2018-Apr-15 13:31N 51°58' E 004°08'0 0.0
2018-Apr-15 13:01N 51°58' E 004°08'0 0.0
2018-Apr-15 12:31N 51°58' E 004°08'0 0.0
2018-Apr-15 12:01N 51°58' E 004°08'1 2.1
2018-Apr-15 11:31N 51°58' E 004°07'0 0.1
2018-Apr-15 11:00N 51°58' E 004°07'1 2.1
2018-Apr-15 10:31N 51°59' E 004°05'0 0.3
2018-Apr-15 10:01N 51°59' E 004°06'2 3.9
2018-Apr-15 09:31N 51°58' E 004°08'0 0.0
2018-Apr-15 09:01N 51°58' E 004°08'0 0.0
2018-Apr-15 08:30N 51°58' E 004°08'0 0.0
2018-Apr-15 08:01N 51°58' E 004°08'0 0.0
2018-Apr-15 07:31N 51°58' E 004°08'0 0.0
2018-Apr-15 07:00N 51°58' E 004°08'0 0.0
2018-Apr-15 06:31N 51°58' E 004°08'0 0.0
2018-Apr-15 06:01N 51°58' E 004°08'0 0.0
2018-Apr-15 05:31N 51°58' E 004°08'0 0.0
2018-Apr-15 05:01N 51°58' E 004°08'0 0.0
2018-Apr-15 04:31N 51°58' E 004°08'0 0.0
2018-Apr-15 04:01N 51°58' E 004°08'0 0.0
2018-Apr-15 03:31N 51°58' E 004°08'0 0.0
2018-Apr-15 03:01N 51°58' E 004°08'0 0.0
2018-Apr-15 02:31N 51°58' E 004°08'0 0.0
2018-Apr-15 02:01N 51°58' E 004°08'0 0.0
2018-Apr-15 01:31N 51°58' E 004°08'0 0.0
2018-Apr-15 01:01N 51°58' E 004°08'0 0.0
2018-Apr-15 00:30N 51°58' E 004°08'0 0.0
2018-Apr-15 00:01N 51°58' E 004°08'0 0.0
2018-Apr-14 23:31N 51°58' E 004°08'0 0.0
2018-Apr-14 23:00N 51°58' E 004°08'0 0.0
2018-Apr-14 22:30N 51°58' E 004°08'0 0.0
2018-Apr-14 22:00N 51°58' E 004°08'0 0.0
2018-Apr-14 21:31N 51°58' E 004°08'0 0.0
2018-Apr-14 21:01N 51°58' E 004°08'2 4.3
2018-Apr-14 20:31N 51°58' E 004°05'1 1.5
2018-Apr-14 20:01N 51°58' E 004°04'1 2.5
2018-Apr-14 19:31N 51°59' E 004°05'0 0.4
2018-Apr-14 19:01N 51°58' E 004°05'2 3.1
2018-Apr-14 18:31N 51°57' E 004°06'0 0.0
2018-Apr-14 18:01N 51°57' E 004°06'0 0.8
2018-Apr-14 17:31N 51°57' E 004°05'1 1.3
2018-Apr-14 17:01N 51°58' E 004°05'0 0.6
2018-Apr-14 16:31N 51°58' E 004°04'0 0.1
2018-Apr-14 16:01N 51°58' E 004°04'2 5.0
2018-Apr-14 15:31N 51°57' E 004°08'0 0.3
2018-Apr-14 15:01N 51°57' E 004°08'1 1.2
2018-Apr-14 14:31N 51°57' E 004°09'3 5.0
2018-Apr-14 14:00N 51°55' E 004°12'0 0.7
2018-Apr-14 13:31N 51°56' E 004°12'5 9.5
2018-Apr-14 13:01N 51°58' E 004°06'1 1.6
2018-Apr-14 12:30N 51°58' E 004°04'0 0.3
2018-Apr-14 12:00N 51°58' E 004°04'1 1.6
2018-Apr-14 11:31N 51°59' E 004°05'0 0.5
2018-Apr-14 11:01N 51°59' E 004°05'2 3.0
2018-Apr-14 10:31N 51°58' E 004°03'0 0.2
2018-Apr-14 10:01N 51°58' E 004°03'1 2.4
2018-Apr-14 09:31N 51°58' E 004°02'2 3.2
2018-Apr-14 09:01N 51°58' E 004°04'1 1.8
2018-Apr-14 08:31N 51°59' E 004°04'3 5.5
2018-Apr-14 08:01N 51°58' E 004°08'0 0.0
2018-Apr-14 07:31N 51°58' E 004°08'0 0.0
2018-Apr-14 07:01N 51°58' E 004°08'0 0.0
2018-Apr-14 06:30N 51°58' E 004°08'0 0.0
2018-Apr-14 06:01N 51°58' E 004°08'0 0.0
2018-Apr-14 05:30N 51°58' E 004°08'0 0.0
2018-Apr-14 05:01N 51°58' E 004°08'0 0.0
2018-Apr-14 04:31N 51°58' E 004°08'0 0.0
2018-Apr-14 04:01N 51°58' E 004°08'0 0.0
2018-Apr-14 03:31N 51°58' E 004°08'0 0.0
2018-Apr-14 03:01N 51°58' E 004°08'0 0.0
2018-Apr-14 02:30N 51°58' E 004°08'0 0.0
2018-Apr-14 02:00N 51°58' E 004°08'0 0.0
2018-Apr-14 01:30N 51°58' E 004°08'0 0.0
2018-Apr-14 01:01N 51°58' E 004°08'0 0.0
2018-Apr-14 00:31N 51°58' E 004°08'0 0.0
2018-Apr-14 00:01N 51°58' E 004°08'0 0.0
2018-Apr-13 23:31N 51°58' E 004°08'0 0.0
2018-Apr-13 23:01N 51°58' E 004°08'0 0.0
2018-Apr-13 22:31N 51°58' E 004°08'0 0.0
2018-Apr-13 22:01N 51°58' E 004°08'0 0.0
2018-Apr-13 21:31N 51°58' E 004°08'0 0.0
2018-Apr-13 21:00N 51°58' E 004°08'0 0.0
2018-Apr-13 20:31N 51°58' E 004°08'0 0.0
2018-Apr-13 20:01N 51°58' E 004°08'0 0.0
2018-Apr-13 19:31N 51°58' E 004°08'0 0.0
2018-Apr-13 19:00N 51°58' E 004°08'0 0.9
2018-Apr-13 18:31N 51°57' E 004°09'1 2.1
2018-Apr-13 18:01N 51°58' E 004°07'0 0.4
2018-Apr-13 17:30N 51°58' E 004°07'1 1.1
2018-Apr-13 17:00N 51°58' E 004°08'0 0.4
2018-Apr-13 16:01N 51°58' E 004°08'0 0.0
2018-Apr-13 14:31N 51°58' E 004°08'0 0.0
2018-Apr-13 14:01N 51°58' E 004°08'0 0.0
2018-Apr-13 13:31N 51°58' E 004°08'0 0.0
2018-Apr-13 13:01N 51°58' E 004°08'0 0.0
2018-Apr-13 12:31N 51°58' E 004°08'0 0.0
2018-Apr-13 12:00N 51°58' E 004°08'0 0.0
2018-Apr-13 11:30N 51°58' E 004°08'0 0.0
2018-Apr-13 11:00N 51°58' E 004°08'0 0.0
2018-Apr-13 10:30N 51°58' E 004°08'0 0.0
2018-Apr-13 10:00N 51°58' E 004°08'0 0.0
2018-Apr-13 09:30N 51°58' E 004°08'0 0.0
2018-Apr-13 09:00N 51°58' E 004°08'0 0.0
2018-Apr-13 08:30N 51°58' E 004°08'0 0.0
2018-Apr-13 08:00N 51°58' E 004°08'0 0.0
2018-Apr-13 07:30N 51°58' E 004°08'0 0.0
2018-Apr-13 07:00N 51°58' E 004°08'0 0.0
2018-Apr-13 06:30N 51°58' E 004°08'0 0.0
2018-Apr-13 06:00N 51°58' E 004°08'0 0.0
2018-Apr-13 05:30N 51°58' E 004°08'0 0.0
2018-Apr-13 05:00N 51°58' E 004°08'0 0.0
2018-Apr-13 04:30N 51°58' E 004°08'0 0.0
2018-Apr-13 04:00N 51°58' E 004°08'0 0.0
2018-Apr-13 03:30N 51°58' E 004°08'0 0.0
2018-Apr-13 03:00N 51°58' E 004°08'0 0.0
2018-Apr-13 02:30N 51°58' E 004°08'0 0.0
2018-Apr-13 02:00N 51°58' E 004°08'0 0.0
2018-Apr-13 01:30N 51°58' E 004°08'0 0.0
2018-Apr-13 01:00N 51°58' E 004°08'0 0.0
2018-Apr-13 00:30N 51°58' E 004°08'0 0.0
2018-Apr-13 00:00N 51°58' E 004°08'0 0.0
2018-Apr-12 23:30N 51°58' E 004°08'0 0.0
2018-Apr-12 23:00N 51°58' E 004°08'0 0.0
2018-Apr-12 22:30N 51°58' E 004°08'0 0.0
2018-Apr-12 22:00N 51°58' E 004°08'0 0.0
2018-Apr-12 21:30N 51°58' E 004°08'0 0.0
2018-Apr-12 21:00N 51°58' E 004°08'0 0.0
2018-Apr-12 20:30N 51°58' E 004°08'0 0.0
2018-Apr-12 20:00N 51°58' E 004°08'0 0.0
2018-Apr-12 19:30N 51°58' E 004°08'0 0.0
2018-Apr-12 19:00N 51°58' E 004°08'0 0.0
2018-Apr-12 18:30N 51°58' E 004°08'0 0.0
2018-Apr-12 18:00N 51°58' E 004°08'0 0.0
2018-Apr-12 17:30N 51°58' E 004°08'0 0.0
2018-Apr-12 17:00N 51°58' E 004°08'0 0.0
2018-Apr-12 16:30N 51°58' E 004°08'0 0.0
2018-Apr-12 16:00N 51°58' E 004°08'0 0.0
2018-Apr-12 15:30N 51°58' E 004°08'0 0.0
2018-Apr-12 15:00N 51°58' E 004°08'  

Dump ship's entire track history